sensor_id;sensor_type;location;lat;lon;timestamp;pressure;altitude;pressure_sealevel;temperature;humidity
24336;BME280;33098;52.400;16.880;2023-05-21T00:01:19;101349.52;;;17.59;77.55
24336;BME280;33098;52.400;16.880;2023-05-21T00:03:49;101347.27;;;17.56;77.71
24336;BME280;33098;52.400;16.880;2023-05-21T00:06:15;101346.20;;;17.56;77.90
24336;BME280;33098;52.400;16.880;2023-05-21T00:08:45;101347.60;;;17.58;77.97
24336;BME280;33098;52.400;16.880;2023-05-21T00:11:12;101350.65;;;17.57;77.99
24336;BME280;33098;52.400;16.880;2023-05-21T00:13:38;101349.24;;;17.56;78.23
24336;BME280;33098;52.400;16.880;2023-05-21T00:16:07;101347.78;;;17.58;78.40
24336;BME280;33098;52.400;16.880;2023-05-21T00:18:36;101350.80;;;17.59;78.43
24336;BME280;33098;52.400;16.880;2023-05-21T00:21:04;101349.94;;;17.59;78.64
24336;BME280;33098;52.400;16.880;2023-05-21T00:23:34;101348.05;;;17.56;78.60
24336;BME280;33098;52.400;16.880;2023-05-21T00:26:02;101352.80;;;17.56;78.87
24336;BME280;33098;52.400;16.880;2023-05-21T00:28:29;101350.10;;;17.51;78.90
24336;BME280;33098;52.400;16.880;2023-05-21T00:30:56;101353.11;;;17.48;79.07
24336;BME280;33098;52.400;16.880;2023-05-21T00:33:22;101350.68;;;17.41;79.15
24336;BME280;33098;52.400;16.880;2023-05-21T00:35:51;101351.33;;;17.43;79.62
24336;BME280;33098;52.400;16.880;2023-05-21T00:38:23;101352.69;;;17.44;79.62
24336;BME280;33098;52.400;16.880;2023-05-21T00:40:54;101355.86;;;17.41;79.69
24336;BME280;33098;52.400;16.880;2023-05-21T00:43:21;101357.00;;;17.35;79.70
24336;BME280;33098;52.400;16.880;2023-05-21T00:45:51;101351.59;;;17.33;80.02
24336;BME280;33098;52.400;16.880;2023-05-21T00:48:19;101346.92;;;17.33;80.25
24336;BME280;33098;52.400;16.880;2023-05-21T00:50:46;101348.98;;;17.32;80.17
24336;BME280;33098;52.400;16.880;2023-05-21T00:53:15;101348.52;;;17.33;80.33
24336;BME280;33098;52.400;16.880;2023-05-21T00:55:51;101349.41;;;17.33;80.36
24336;BME280;33098;52.400;16.880;2023-05-21T00:58:21;101348.44;;;17.36;80.65
24336;BME280;33098;52.400;16.880;2023-05-21T01:00:48;101347.63;;;17.35;80.58
24336;BME280;33098;52.400;16.880;2023-05-21T01:03:15;101347.13;;;17.36;80.63
24336;BME280;33098;52.400;16.880;2023-05-21T01:05:42;101344.13;;;17.36;80.72
24336;BME280;33098;52.400;16.880;2023-05-21T01:08:11;101343.73;;;17.40;80.82
24336;BME280;33098;52.400;16.880;2023-05-21T01:10:38;101340.82;;;17.43;80.92
24336;BME280;33098;52.400;16.880;2023-05-21T01:13:05;101343.88;;;17.43;80.80
24336;BME280;33098;52.400;16.880;2023-05-21T01:15:32;101343.10;;;17.43;80.85
24336;BME280;33098;52.400;16.880;2023-05-21T01:17:58;101340.59;;;17.43;80.90
24336;BME280;33098;52.400;16.880;2023-05-21T01:20:25;101340.42;;;17.43;80.87
24336;BME280;33098;52.400;16.880;2023-05-21T01:22:56;101337.02;;;17.41;80.87
24336;BME280;33098;52.400;16.880;2023-05-21T01:25:24;101333.29;;;17.37;80.85
24336;BME280;33098;52.400;16.880;2023-05-21T01:27:51;101329.45;;;17.34;80.87
24336;BME280;33098;52.400;16.880;2023-05-21T01:30:22;101328.14;;;17.32;81.01
24336;BME280;33098;52.400;16.880;2023-05-21T01:33:01;101329.38;;;17.32;81.13
24336;BME280;33098;52.400;16.880;2023-05-21T01:35:37;101327.37;;;17.33;81.28
24336;BME280;33098;52.400;16.880;2023-05-21T01:38:22;101327.89;;;17.31;81.25
24336;BME280;33098;52.400;16.880;2023-05-21T01:40:57;101326.95;;;17.34;81.44
24336;BME280;33098;52.400;16.880;2023-05-21T01:43:28;101333.23;;;17.34;81.37
24336;BME280;33098;52.400;16.880;2023-05-21T01:45:58;101328.84;;;17.32;81.43
24336;BME280;33098;52.400;16.880;2023-05-21T01:48:27;101326.36;;;17.26;81.39
24336;BME280;33098;52.400;16.880;2023-05-21T01:50:59;101325.52;;;17.26;81.58
24336;BME280;33098;52.400;16.880;2023-05-21T01:53:27;101329.19;;;17.23;81.58
24336;BME280;33098;52.400;16.880;2023-05-21T01:55:59;101325.91;;;17.20;81.75
24336;BME280;33098;52.400;16.880;2023-05-21T01:58:26;101325.15;;;17.16;81.81
24336;BME280;33098;52.400;16.880;2023-05-21T02:00:53;101323.15;;;17.14;81.94
24336;BME280;33098;52.400;16.880;2023-05-21T02:03:20;101323.91;;;17.12;81.95
24336;BME280;33098;52.400;16.880;2023-05-21T02:05:47;101318.28;;;17.03;82.05
24336;BME280;33098;52.400;16.880;2023-05-21T02:08:14;101322.03;;;16.99;82.26
24336;BME280;33098;52.400;16.880;2023-05-21T02:10:40;101320.25;;;17.01;82.62
24336;BME280;33098;52.400;16.880;2023-05-21T02:13:07;101321.05;;;17.04;82.77
24336;BME280;33098;52.400;16.880;2023-05-21T02:15:34;101321.36;;;17.03;82.80
24336;BME280;33098;52.400;16.880;2023-05-21T02:18:04;101322.91;;;16.97;82.82
24336;BME280;33098;52.400;16.880;2023-05-21T02:20:33;101316.19;;;16.97;83.04
24336;BME280;33098;52.400;16.880;2023-05-21T02:23:03;101319.66;;;16.98;83.19
24336;BME280;33098;52.400;16.880;2023-05-21T02:25:29;101316.23;;;16.96;83.24
24336;BME280;33098;52.400;16.880;2023-05-21T02:27:56;101316.32;;;16.91;83.28
24336;BME280;33098;52.400;16.880;2023-05-21T02:30:26;101315.12;;;16.89;83.49
24336;BME280;33098;52.400;16.880;2023-05-21T02:32:53;101315.83;;;16.89;83.79
24336;BME280;33098;52.400;16.880;2023-05-21T02:35:20;101316.58;;;16.86;83.79
24336;BME280;33098;52.400;16.880;2023-05-21T02:37:50;101319.52;;;16.81;83.83
24336;BME280;33098;52.400;16.880;2023-05-21T02:40:16;101320.46;;;16.77;83.96
24336;BME280;33098;52.400;16.880;2023-05-21T02:42:43;101316.19;;;16.75;84.18
24336;BME280;33098;52.400;16.880;2023-05-21T02:45:11;101309.17;;;16.75;84.49
24336;BME280;33098;52.400;16.880;2023-05-21T02:47:40;101314.61;;;16.72;84.51
24336;BME280;33098;52.400;16.880;2023-05-21T02:50:08;101311.66;;;16.65;84.53
24336;BME280;33098;52.400;16.880;2023-05-21T02:52:40;101308.22;;;16.60;84.69
24336;BME280;33098;52.400;16.880;2023-05-21T02:55:07;101309.30;;;16.60;85.13
24336;BME280;33098;52.400;16.880;2023-05-21T02:57:37;101310.48;;;16.59;85.25
24336;BME280;33098;52.400;16.880;2023-05-21T03:00:04;101305.50;;;16.56;85.51
24336;BME280;33098;52.400;16.880;2023-05-21T03:02:32;101300.69;;;16.60;85.73
24336;BME280;33098;52.400;16.880;2023-05-21T03:04:58;101300.33;;;16.58;85.71
24336;BME280;33098;52.400;16.880;2023-05-21T03:07:28;101304.45;;;16.56;85.81
24336;BME280;33098;52.400;16.880;2023-05-21T03:09:59;101299.41;;;16.58;86.02
24336;BME280;33098;52.400;16.880;2023-05-21T03:12:26;101297.98;;;16.58;86.12
24336;BME280;33098;52.400;16.880;2023-05-21T03:14:53;101299.56;;;16.58;86.16
24336;BME280;33098;52.400;16.880;2023-05-21T03:17:20;101293.48;;;16.60;86.23
24336;BME280;33098;52.400;16.880;2023-05-21T03:19:47;101294.87;;;16.64;86.44
24336;BME280;33098;52.400;16.880;2023-05-21T03:22:15;101301.55;;;16.68;86.36
24336;BME280;33098;52.400;16.880;2023-05-21T03:24:41;101299.83;;;16.71;86.35
24336;BME280;33098;52.400;16.880;2023-05-21T03:27:12;101296.92;;;16.72;86.31
24336;BME280;33098;52.400;16.880;2023-05-21T03:29:38;101292.45;;;16.72;86.36
24336;BME280;33098;52.400;16.880;2023-05-21T03:32:06;101295.64;;;16.72;86.26
24336;BME280;33098;52.400;16.880;2023-05-21T03:34:33;101300.08;;;16.72;86.21
24336;BME280;33098;52.400;16.880;2023-05-21T03:37:04;101294.42;;;16.72;86.17
24336;BME280;33098;52.400;16.880;2023-05-21T03:39:31;101295.36;;;16.69;86.16
24336;BME280;33098;52.400;16.880;2023-05-21T03:41:58;101302.09;;;16.66;86.16
24336;BME280;33098;52.400;16.880;2023-05-21T03:44:35;101300.66;;;16.66;86.31
24336;BME280;33098;52.400;16.880;2023-05-21T03:47:21;101299.20;;;16.66;86.36
24336;BME280;33098;52.400;16.880;2023-05-21T03:49:48;101296.09;;;16.67;86.35
24336;BME280;33098;52.400;16.880;2023-05-21T03:52:18;101292.13;;;16.69;86.56
24336;BME280;33098;52.400;16.880;2023-05-21T03:54:45;101297.27;;;16.73;86.55
24336;BME280;33098;52.400;16.880;2023-05-21T03:57:12;101295.95;;;16.74;86.32
24336;BME280;33098;52.400;16.880;2023-05-21T03:59:39;101291.91;;;16.68;86.06
24336;BME280;33098;52.400;16.880;2023-05-21T04:02:08;101297.14;;;16.67;86.17
24336;BME280;33098;52.400;16.880;2023-05-21T04:04:38;101296.91;;;16.72;86.34
24336;BME280;33098;52.400;16.880;2023-05-21T04:07:10;101296.44;;;16.75;86.25
24336;BME280;33098;52.400;16.880;2023-05-21T04:09:45;101291.32;;;16.76;86.23
24336;BME280;33098;52.400;16.880;2023-05-21T04:12:14;101295.45;;;16.78;86.11
24336;BME280;33098;52.400;16.880;2023-05-21T04:14:41;101292.05;;;16.79;85.91
24336;BME280;33098;52.400;16.880;2023-05-21T04:17:07;101293.58;;;16.80;85.77
24336;BME280;33098;52.400;16.880;2023-05-21T04:19:39;101293.79;;;16.84;85.74
24336;BME280;33098;52.400;16.880;2023-05-21T04:22:09;101293.41;;;16.87;85.64
24336;BME280;33098;52.400;16.880;2023-05-21T04:24:35;101290.30;;;16.85;85.41
24336;BME280;33098;52.400;16.880;2023-05-21T04:27:16;101293.21;;;16.84;85.31
24336;BME280;33098;52.400;16.880;2023-05-21T04:29:44;101292.30;;;16.85;85.19
24336;BME280;33098;52.400;16.880;2023-05-21T04:32:14;101293.55;;;16.89;85.23
24336;BME280;33098;52.400;16.880;2023-05-21T04:34:43;101292.14;;;16.89;84.93
24336;BME280;33098;52.400;16.880;2023-05-21T04:37:11;101296.72;;;16.92;84.95
24336;BME280;33098;52.400;16.880;2023-05-21T04:39:38;101295.22;;;16.98;84.79
24336;BME280;33098;52.400;16.880;2023-05-21T04:42:06;101293.13;;;17.02;84.55
24336;BME280;33098;52.400;16.880;2023-05-21T04:44:37;101288.48;;;17.05;84.48
24336;BME280;33098;52.400;16.880;2023-05-21T04:47:09;101291.96;;;17.06;84.15
24336;BME280;33098;52.400;16.880;2023-05-21T04:49:38;101299.06;;;17.13;84.02
24336;BME280;33098;52.400;16.880;2023-05-21T04:52:12;101298.73;;;17.19;83.75
24336;BME280;33098;52.400;16.880;2023-05-21T04:54:38;101298.02;;;17.23;83.59
24336;BME280;33098;52.400;16.880;2023-05-21T04:57:07;101297.10;;;17.28;83.33
24336;BME280;33098;52.400;16.880;2023-05-21T04:59:34;101296.27;;;17.34;83.15
24336;BME280;33098;52.400;16.880;2023-05-21T05:02:08;101293.11;;;17.39;82.79
24336;BME280;33098;52.400;16.880;2023-05-21T05:04:35;101299.19;;;17.44;82.43
24336;BME280;33098;52.400;16.880;2023-05-21T05:07:04;101296.12;;;17.51;82.08
24336;BME280;33098;52.400;16.880;2023-05-21T05:09:33;101299.45;;;17.53;81.64
24336;BME280;33098;52.400;16.880;2023-05-21T05:11:59;101295.73;;;17.55;81.38
24336;BME280;33098;52.400;16.880;2023-05-21T05:14:26;101296.85;;;17.60;81.23
24336;BME280;33098;52.400;16.880;2023-05-21T05:16:56;101297.23;;;17.65;81.08
24336;BME280;33098;52.400;16.880;2023-05-21T05:19:37;101294.18;;;17.71;80.89
24336;BME280;33098;52.400;16.880;2023-05-21T05:22:04;101297.88;;;17.77;80.39
24336;BME280;33098;52.400;16.880;2023-05-21T05:24:30;101298.73;;;17.84;80.04
24336;BME280;33098;52.400;16.880;2023-05-21T05:27:00;101300.46;;;17.88;79.87
24336;BME280;33098;52.400;16.880;2023-05-21T05:29:32;101301.55;;;17.92;79.58
24336;BME280;33098;52.400;16.880;2023-05-21T05:31:59;101298.12;;;17.96;79.45
24336;BME280;33098;52.400;16.880;2023-05-21T05:34:26;101300.59;;;18.02;79.19
24336;BME280;33098;52.400;16.880;2023-05-21T05:36:52;101301.09;;;18.06;78.99
24336;BME280;33098;52.400;16.880;2023-05-21T05:39:19;101303.63;;;18.10;78.63
24336;BME280;33098;52.400;16.880;2023-05-21T05:41:48;101302.24;;;18.13;78.43
24336;BME280;33098;52.400;16.880;2023-05-21T05:44:18;101299.48;;;18.18;78.09
24336;BME280;33098;52.400;16.880;2023-05-21T05:46:44;101301.77;;;18.21;77.84
24336;BME280;33098;52.400;16.880;2023-05-21T05:49:11;101298.45;;;18.26;77.51
24336;BME280;33098;52.400;16.880;2023-05-21T05:51:41;101301.34;;;18.31;77.03
24336;BME280;33098;52.400;16.880;2023-05-21T05:54:09;101302.98;;;18.37;76.86
24336;BME280;33098;52.400;16.880;2023-05-21T05:56:38;101304.15;;;18.41;76.57
24336;BME280;33098;52.400;16.880;2023-05-21T05:59:05;101300.30;;;18.45;76.26
24336;BME280;33098;52.400;16.880;2023-05-21T06:01:38;101301.73;;;18.52;76.11
24336;BME280;33098;52.400;16.880;2023-05-21T06:04:05;101304.13;;;18.55;75.74
24336;BME280;33098;52.400;16.880;2023-05-21T06:06:35;101300.63;;;18.59;75.56
24336;BME280;33098;52.400;16.880;2023-05-21T06:09:02;101299.71;;;18.61;75.38
24336;BME280;33098;52.400;16.880;2023-05-21T06:11:31;101301.81;;;18.65;75.34
24336;BME280;33098;52.400;16.880;2023-05-21T06:13:57;101297.16;;;18.68;75.08
24336;BME280;33098;52.400;16.880;2023-05-21T06:16:31;101297.11;;;18.74;74.78
24336;BME280;33098;52.400;16.880;2023-05-21T06:18:58;101298.37;;;18.82;74.31
24336;BME280;33098;52.400;16.880;2023-05-21T06:21:24;101299.52;;;18.87;74.05
24336;BME280;33098;52.400;16.880;2023-05-21T06:23:53;101299.31;;;18.91;73.41
24336;BME280;33098;52.400;16.880;2023-05-21T06:26:20;101298.86;;;18.97;73.30
24336;BME280;33098;52.400;16.880;2023-05-21T06:28:48;101303.93;;;19.02;72.90
24336;BME280;33098;52.400;16.880;2023-05-21T06:31:17;101306.41;;;19.07;72.43
24336;BME280;33098;52.400;16.880;2023-05-21T06:33:48;101305.75;;;19.14;72.34
24336;BME280;33098;52.400;16.880;2023-05-21T06:36:15;101300.64;;;19.22;72.00
24336;BME280;33098;52.400;16.880;2023-05-21T06:38:46;101304.21;;;19.29;71.51
24336;BME280;33098;52.400;16.880;2023-05-21T06:41:13;101298.46;;;19.35;71.11
24336;BME280;33098;52.400;16.880;2023-05-21T06:43:53;101300.48;;;19.39;70.89
24336;BME280;33098;52.400;16.880;2023-05-21T06:46:39;101298.19;;;19.44;70.65
24336;BME280;33098;52.400;16.880;2023-05-21T06:49:10;101298.98;;;19.51;70.33
24336;BME280;33098;52.400;16.880;2023-05-21T06:51:37;101300.02;;;19.58;69.92
24336;BME280;33098;52.400;16.880;2023-05-21T06:54:04;101300.98;;;19.63;69.75
24336;BME280;33098;52.400;16.880;2023-05-21T06:56:40;101301.84;;;19.68;69.30
24336;BME280;33098;52.400;16.880;2023-05-21T06:59:07;101301.64;;;19.74;69.16
24336;BME280;33098;52.400;16.880;2023-05-21T07:01:40;101299.00;;;19.78;69.02
24336;BME280;33098;52.400;16.880;2023-05-21T07:04:10;101301.35;;;19.84;68.81
24336;BME280;33098;52.400;16.880;2023-05-21T07:06:39;101297.92;;;19.87;68.48
24336;BME280;33098;52.400;16.880;2023-05-21T07:09:06;101300.45;;;19.92;68.15
24336;BME280;33098;52.400;16.880;2023-05-21T07:11:35;101296.84;;;19.98;67.71
24336;BME280;33098;52.400;16.880;2023-05-21T07:14:07;101299.19;;;20.04;67.62
24336;BME280;33098;52.400;16.880;2023-05-21T07:16:37;101297.16;;;20.12;67.18
24336;BME280;33098;52.400;16.880;2023-05-21T07:19:05;101295.42;;;20.18;67.12
24336;BME280;33098;52.400;16.880;2023-05-21T07:21:32;101289.23;;;20.24;66.67
24336;BME280;33098;52.400;16.880;2023-05-21T07:24:01;101297.59;;;20.32;66.37
24336;BME280;33098;52.400;16.880;2023-05-21T07:26:28;101295.76;;;20.38;66.20
24336;BME280;33098;52.400;16.880;2023-05-21T07:29:01;101299.12;;;20.43;65.81
24336;BME280;33098;52.400;16.880;2023-05-21T07:31:28;101295.95;;;20.49;65.52
24336;BME280;33098;52.400;16.880;2023-05-21T07:33:55;101296.03;;;20.55;65.41
24336;BME280;33098;52.400;16.880;2023-05-21T07:36:28;101291.69;;;20.58;65.02
24336;BME280;33098;52.400;16.880;2023-05-21T07:39:00;101293.68;;;20.63;64.59
24336;BME280;33098;52.400;16.880;2023-05-21T07:41:30;101292.89;;;20.70;64.16
24336;BME280;33098;52.400;16.880;2023-05-21T07:44:03;101291.64;;;20.81;64.06
24336;BME280;33098;52.400;16.880;2023-05-21T07:46:31;101286.72;;;20.88;63.58
24336;BME280;33098;52.400;16.880;2023-05-21T07:49:00;101286.55;;;20.94;63.35
24336;BME280;33098;52.400;16.880;2023-05-21T07:51:32;101287.45;;;20.99;63.19
24336;BME280;33098;52.400;16.880;2023-05-21T07:53:59;101288.88;;;21.01;62.92
24336;BME280;33098;52.400;16.880;2023-05-21T07:56:33;101288.63;;;21.06;62.91
24336;BME280;33098;52.400;16.880;2023-05-21T07:59:02;101290.27;;;21.15;62.40
24336;BME280;33098;52.400;16.880;2023-05-21T08:01:29;101287.45;;;21.21;62.10
24336;BME280;33098;52.400;16.880;2023-05-21T08:03:58;101289.17;;;21.25;61.75
24336;BME280;33098;52.400;16.880;2023-05-21T08:06:45;101289.60;;;21.29;61.61
24336;BME280;33098;52.400;16.880;2023-05-21T08:09:15;101283.55;;;21.33;61.69
24336;BME280;33098;52.400;16.880;2023-05-21T08:11:47;101286.35;;;21.35;61.50
24336;BME280;33098;52.400;16.880;2023-05-21T08:14:14;101291.20;;;21.37;61.14
24336;BME280;33098;52.400;16.880;2023-05-21T08:16:42;101294.72;;;21.38;60.85
24336;BME280;33098;52.400;16.880;2023-05-21T08:19:12;101288.81;;;21.41;60.59
24336;BME280;33098;52.400;16.880;2023-05-21T08:21:43;101292.16;;;21.47;60.32
24336;BME280;33098;52.400;16.880;2023-05-21T08:24:10;101284.48;;;21.52;59.73
24336;BME280;33098;52.400;16.880;2023-05-21T08:26:43;101283.87;;;21.56;59.36
24336;BME280;33098;52.400;16.880;2023-05-21T08:29:10;101287.25;;;21.59;59.15
24336;BME280;33098;52.400;16.880;2023-05-21T08:31:37;101284.45;;;21.61;58.91
24336;BME280;33098;52.400;16.880;2023-05-21T08:34:06;101288.73;;;21.63;58.82
24336;BME280;33098;52.400;16.880;2023-05-21T08:36:45;101288.21;;;21.67;58.42
24336;BME280;33098;52.400;16.880;2023-05-21T08:39:36;101291.52;;;21.74;58.27
24336;BME280;33098;52.400;16.880;2023-05-21T08:42:16;101286.31;;;21.80;57.97
24336;BME280;33098;52.400;16.880;2023-05-21T08:44:53;101289.77;;;21.89;57.59
24336;BME280;33098;52.400;16.880;2023-05-21T08:47:25;101287.76;;;21.96;57.17
24336;BME280;33098;52.400;16.880;2023-05-21T08:50:01;101284.05;;;22.03;56.82
24336;BME280;33098;52.400;16.880;2023-05-21T08:52:31;101281.98;;;22.10;56.92
24336;BME280;33098;52.400;16.880;2023-05-21T08:54:58;101282.73;;;22.19;56.49
24336;BME280;33098;52.400;16.880;2023-05-21T08:57:25;101279.80;;;22.29;56.31
24336;BME280;33098;52.400;16.880;2023-05-21T09:00:00;101278.41;;;22.34;56.24
24336;BME280;33098;52.400;16.880;2023-05-21T09:02:28;101284.58;;;22.40;56.14
24336;BME280;33098;52.400;16.880;2023-05-21T09:05:00;101277.69;;;22.46;55.82
24336;BME280;33098;52.400;16.880;2023-05-21T09:07:30;101274.23;;;22.54;55.41
24336;BME280;33098;52.400;16.880;2023-05-21T09:10:11;101279.77;;;22.62;55.06
24336;BME280;33098;52.400;16.880;2023-05-21T09:12:41;101274.73;;;22.68;55.06
24336;BME280;33098;52.400;16.880;2023-05-21T09:15:13;101272.44;;;22.76;54.85
24336;BME280;33098;52.400;16.880;2023-05-21T09:17:40;101276.98;;;22.85;54.54
24336;BME280;33098;52.400;16.880;2023-05-21T09:20:29;101276.81;;;22.94;54.13
24336;BME280;33098;52.400;16.880;2023-05-21T09:23:02;101276.20;;;23.00;53.88
24336;BME280;33098;52.400;16.880;2023-05-21T09:25:36;101275.98;;;23.04;53.64
24336;BME280;33098;52.400;16.880;2023-05-21T09:28:16;101275.65;;;23.10;52.97
24336;BME280;33098;52.400;16.880;2023-05-21T09:30:44;101279.83;;;23.18;52.35
24336;BME280;33098;52.400;16.880;2023-05-21T09:33:24;101281.19;;;23.24;52.23
24336;BME280;33098;52.400;16.880;2023-05-21T09:35:51;101283.38;;;23.30;52.28
24336;BME280;33098;52.400;16.880;2023-05-21T09:38:21;101283.02;;;23.38;51.69
24336;BME280;33098;52.400;16.880;2023-05-21T09:40:54;101281.81;;;23.46;51.47
24336;BME280;33098;52.400;16.880;2023-05-21T09:43:24;101281.70;;;23.55;51.55
24336;BME280;33098;52.400;16.880;2023-05-21T09:45:55;101284.66;;;23.63;51.23
24336;BME280;33098;52.400;16.880;2023-05-21T09:48:38;101277.29;;;23.72;51.35
24336;BME280;33098;52.400;16.880;2023-05-21T09:51:14;101281.86;;;23.82;51.18
24336;BME280;33098;52.400;16.880;2023-05-21T09:53:50;101287.67;;;23.92;50.81
24336;BME280;33098;52.400;16.880;2023-05-21T09:56:29;101285.09;;;24.05;50.56
24336;BME280;33098;52.400;16.880;2023-05-21T09:58:59;101276.36;;;24.14;50.17
24336;BME280;33098;52.400;16.880;2023-05-21T10:01:32;101277.16;;;24.21;50.19
24336;BME280;33098;52.400;16.880;2023-05-21T10:04:05;101276.06;;;24.26;50.02
24336;BME280;33098;52.400;16.880;2023-05-21T10:06:41;101271.86;;;24.33;49.72
24336;BME280;33098;52.400;16.880;2023-05-21T10:09:10;101274.98;;;24.43;49.56
24336;BME280;33098;52.400;16.880;2023-05-21T10:11:38;101273.19;;;24.51;49.53
24336;BME280;33098;52.400;16.880;2023-05-21T10:14:15;101269.57;;;24.61;49.58
24336;BME280;33098;52.400;16.880;2023-05-21T10:16:42;101266.42;;;24.75;49.38
24336;BME280;33098;52.400;16.880;2023-05-21T10:19:10;101262.81;;;24.88;49.35
24336;BME280;33098;52.400;16.880;2023-05-21T10:21:41;101260.50;;;24.97;48.94
24336;BME280;33098;52.400;16.880;2023-05-21T10:24:09;101259.70;;;25.11;48.65
24336;BME280;33098;52.400;16.880;2023-05-21T10:26:37;101260.06;;;25.28;48.21
24336;BME280;33098;52.400;16.880;2023-05-21T10:29:06;101258.38;;;25.40;47.85
24336;BME280;33098;52.400;16.880;2023-05-21T10:31:37;101259.02;;;25.53;47.34
24336;BME280;33098;52.400;16.880;2023-05-21T10:34:06;101246.16;;;25.64;47.26
24336;BME280;33098;52.400;16.880;2023-05-21T10:36:35;101244.02;;;25.70;46.99
24336;BME280;33098;52.400;16.880;2023-05-21T10:39:03;101244.27;;;25.74;46.81
24336;BME280;33098;52.400;16.880;2023-05-21T10:41:38;101245.38;;;25.84;46.56
24336;BME280;33098;52.400;16.880;2023-05-21T10:53:44;101231.96;;;26.37;45.59
24336;BME280;33098;52.400;16.880;2023-05-21T10:56:37;101233.39;;;26.50;45.29
24336;BME280;33098;52.400;16.880;2023-05-21T10:59:57;101232.83;;;26.69;45.12
24336;BME280;33098;52.400;16.880;2023-05-21T11:02:10;101220.00;;;26.87;44.90
24336;BME280;33098;52.400;16.880;2023-05-21T11:04:40;101220.79;;;27.03;44.38
24336;BME280;33098;52.400;16.880;2023-05-21T11:07:14;101217.95;;;27.13;44.08
24336;BME280;33098;52.400;16.880;2023-05-21T11:09:41;101212.40;;;27.21;43.75
24336;BME280;33098;52.400;16.880;2023-05-21T11:12:07;101213.01;;;27.30;43.72
24336;BME280;33098;52.400;16.880;2023-05-21T11:14:40;101212.92;;;27.36;43.73
24336;BME280;33098;52.400;16.880;2023-05-21T11:17:10;101215.23;;;27.48;43.59
24336;BME280;33098;52.400;16.880;2023-05-21T11:19:44;101209.36;;;27.57;43.01
24336;BME280;33098;52.400;16.880;2023-05-21T11:22:24;101211.93;;;27.74;42.46
24336;BME280;33098;52.400;16.880;2023-05-21T11:24:53;101213.02;;;27.89;42.71
24336;BME280;33098;52.400;16.880;2023-05-21T11:30:16;101213.88;;;28.23;42.22
24336;BME280;33098;52.400;16.880;2023-05-21T11:35:28;101211.70;;;28.57;41.62
24336;BME280;33098;52.400;16.880;2023-05-21T11:37:55;101213.34;;;28.73;41.60
24336;BME280;33098;52.400;16.880;2023-05-21T11:40:23;101202.85;;;28.86;41.59
24336;BME280;33098;52.400;16.880;2023-05-21T11:42:56;101204.02;;;29.03;41.25
24336;BME280;33098;52.400;16.880;2023-05-21T11:45:27;101203.59;;;29.19;40.96
24336;BME280;33098;52.400;16.880;2023-05-21T11:47:54;101203.74;;;29.36;40.81
24336;BME280;33098;52.400;16.880;2023-05-21T11:50:21;101203.16;;;29.49;40.71
24336;BME280;33098;52.400;16.880;2023-05-21T11:52:49;101194.61;;;29.63;39.93
24336;BME280;33098;52.400;16.880;2023-05-21T11:55:22;101197.54;;;29.78;39.43
24336;BME280;33098;52.400;16.880;2023-05-21T11:57:55;101187.81;;;29.91;39.34
24336;BME280;33098;52.400;16.880;2023-05-21T12:00:23;101192.38;;;29.92;39.24
24336;BME280;33098;52.400;16.880;2023-05-21T12:02:53;101195.75;;;29.87;39.35
24336;BME280;33098;52.400;16.880;2023-05-21T12:05:25;101191.35;;;29.89;39.35
24336;BME280;33098;52.400;16.880;2023-05-21T12:07:53;101187.31;;;29.82;39.01
24336;BME280;33098;52.400;16.880;2023-05-21T12:10:21;101190.07;;;29.75;38.76
24336;BME280;33098;52.400;16.880;2023-05-21T12:12:52;101189.42;;;29.73;38.96
24336;BME280;33098;52.400;16.880;2023-05-21T12:15:20;101185.95;;;29.73;38.96
24336;BME280;33098;52.400;16.880;2023-05-21T12:17:53;101184.34;;;29.78;38.96
24336;BME280;33098;52.400;16.880;2023-05-21T12:20:24;101187.45;;;29.85;38.72
24336;BME280;33098;52.400;16.880;2023-05-21T12:22:52;101191.88;;;29.82;38.50
24336;BME280;33098;52.400;16.880;2023-05-21T12:25:26;101187.07;;;29.81;38.35
24336;BME280;33098;52.400;16.880;2023-05-21T12:27:57;101185.80;;;29.77;38.38
24336;BME280;33098;52.400;16.880;2023-05-21T12:30:27;101187.02;;;29.73;38.04
24336;BME280;33098;52.400;16.880;2023-05-21T12:32:56;101188.70;;;29.73;38.33
24336;BME280;33098;52.400;16.880;2023-05-21T12:35:26;101194.48;;;29.73;38.22
24336;BME280;33098;52.400;16.880;2023-05-21T12:37:59;101190.91;;;29.79;38.22
24336;BME280;33098;52.400;16.880;2023-05-21T12:40:36;101188.80;;;29.84;38.36
24336;BME280;33098;52.400;16.880;2023-05-21T12:43:19;101186.46;;;29.87;38.25
24336;BME280;33098;52.400;16.880;2023-05-21T12:45:50;101188.91;;;29.83;38.35
24336;BME280;33098;52.400;16.880;2023-05-21T12:48:20;101185.80;;;29.82;38.34
24336;BME280;33098;52.400;16.880;2023-05-21T12:50:52;101178.91;;;29.80;37.96
24336;BME280;33098;52.400;16.880;2023-05-21T12:53:19;101177.80;;;29.77;37.81
24336;BME280;33098;52.400;16.880;2023-05-21T12:55:46;101178.02;;;29.77;37.76
24336;BME280;33098;52.400;16.880;2023-05-21T12:58:13;101169.91;;;29.91;37.89
24336;BME280;33098;52.400;16.880;2023-05-21T13:00:42;101171.85;;;30.10;37.69
24336;BME280;33098;52.400;16.880;2023-05-21T13:03:12;101170.56;;;30.28;37.88
24336;BME280;33098;52.400;16.880;2023-05-21T13:05:45;101172.95;;;30.44;37.39
24336;BME280;33098;52.400;16.880;2023-05-21T13:08:15;101170.32;;;30.68;36.57
24336;BME280;33098;52.400;16.880;2023-05-21T13:10:44;101168.48;;;30.76;36.53